Beggs, OK (74421)

5:21 PM CDT on September 27, 2016 (GMT -0500)
Double S Ranch | | Change Station

Elev 778 ft 35.79 °N, 96.07 °W | Updated 3 days ago

Clear
Clear
69 °F
Feels Like 69 °F
N
4
Wind Variable Wind from SSW
Gusts mph

Today
High -- | Low -- °F
--% Chance of Precip.
Yesterday
High -- | Low -- °F
Precip. -- in
Pressure 29.98 in
Visibility 10.0 miles
Clouds Clear
Dew Point 52 °F
Humidity 54%
Rainfall in
Snow Depth Not available.
7:16 AM 7:12 PM
Waning Crescent, 9% visible
METAR KOKM 272215Z AUTO 21007KT 10SM CLR 28/07 A2998 RMK AO2 T02800071
Pressure 29.98 in
Visibility 10.0 miles
Clouds Clear
Dew Point 52 °F
Humidity 54%
Rainfall in
Snow Depth Not available.
7:16 AM 7:12 PM
Waning Crescent, 9% visible
METAR KOKM 272215Z AUTO 21007KT 10SM CLR 28/07 A2998 RMK AO2 T02800071

10-Day Weather Forecast

Almanac

Astronomy

Sep. 27, 2016 Rise Set
Actual Time
Civil Twilight
Nautical Twilight
Astronomical Twilight
Moon
Length of Visible Light
Length of Day
Tomorrow will be .
, % of the Moon is Illuminated

Today's Extremes

State Highs State Lows

Community

WunderPhotos

Upload Photos

1,942,168 photos uploaded!

WunderBlog® & News

Nearby

Air Quality

  Air Quality AQ Index Pollutant
Not available.

Snow Depth

Station Depth Elevation

Earthquake Activity

City Distance Mag. Time & Date
Minimum magnitude displayed is 2.5.

Coastal Water Temperatures

Place Temperature

Stations

Nearby Weather Stations

Station Location Temp. Windchill Dew Point Humidity Wind Precip. Elev Updated Type
                   

Watches & Warnings

There are currently no watches in effect.